sensor_id;sensor_type;location;lat;lon;timestamp;P1;durP1;ratioP1;P2;durP2;ratioP2
2858;SDS011;1437;53.250;10.406;2023-04-01T00:00:13;4.60;;;2.50;;
2858;SDS011;1437;53.250;10.406;2023-04-01T00:02:44;6.90;;;3.93;;
2858;SDS011;1437;53.250;10.406;2023-04-01T00:05:12;7.63;;;3.40;;
2858;SDS011;1437;53.250;10.406;2023-04-01T00:07:41;5.30;;;2.80;;
2858;SDS011;1437;53.250;10.406;2023-04-01T00:10:12;9.03;;;3.03;;
2858;SDS011;1437;53.250;10.406;2023-04-01T00:12:40;11.60;;;2.93;;
2858;SDS011;1437;53.250;10.406;2023-04-01T00:15:08;7.60;;;3.27;;
2858;SDS011;1437;53.250;10.406;2023-04-01T00:17:36;4.90;;;3.10;;
2858;SDS011;1437;53.250;10.406;2023-04-01T00:20:11;5.90;;;2.93;;
2858;SDS011;1437;53.250;10.406;2023-04-01T00:22:39;5.33;;;2.50;;
2858;SDS011;1437;53.250;10.406;2023-04-01T00:25:07;9.97;;;3.07;;
2858;SDS011;1437;53.250;10.406;2023-04-01T00:27:35;6.90;;;2.80;;
2858;SDS011;1437;53.250;10.406;2023-04-01T00:30:04;9.93;;;2.97;;
2858;SDS011;1437;53.250;10.406;2023-04-01T00:32:42;7.27;;;2.83;;
2858;SDS011;1437;53.250;10.406;2023-04-01T00:35:10;5.57;;;3.17;;
2858;SDS011;1437;53.250;10.406;2023-04-01T00:37:38;3.90;;;2.27;;
2858;SDS011;1437;53.250;10.406;2023-04-01T00:40:22;6.83;;;2.43;;
2858;SDS011;1437;53.250;10.406;2023-04-01T00:42:50;4.90;;;2.43;;
2858;SDS011;1437;53.250;10.406;2023-04-01T00:45:25;5.90;;;2.60;;
2858;SDS011;1437;53.250;10.406;2023-04-01T00:47:58;9.00;;;2.50;;
2858;SDS011;1437;53.250;10.406;2023-04-01T00:50:32;5.97;;;2.53;;
2858;SDS011;1437;53.250;10.406;2023-04-01T00:53:01;5.23;;;2.43;;
2858;SDS011;1437;53.250;10.406;2023-04-01T00:55:30;4.80;;;2.67;;
2858;SDS011;1437;53.250;10.406;2023-04-01T00:58:01;5.97;;;2.27;;
2858;SDS011;1437;53.250;10.406;2023-04-01T01:00:31;5.40;;;3.03;;
2858;SDS011;1437;53.250;10.406;2023-04-01T01:03:07;8.47;;;3.20;;
2858;SDS011;1437;53.250;10.406;2023-04-01T01:05:38;7.13;;;2.57;;
2858;SDS011;1437;53.250;10.406;2023-04-01T01:08:16;6.27;;;2.60;;
2858;SDS011;1437;53.250;10.406;2023-04-01T01:10:46;6.50;;;2.87;;
2858;SDS011;1437;53.250;10.406;2023-04-01T01:13:20;5.50;;;3.10;;
2858;SDS011;1437;53.250;10.406;2023-04-01T01:15:52;6.53;;;3.10;;
2858;SDS011;1437;53.250;10.406;2023-04-01T01:18:29;9.93;;;3.00;;
2858;SDS011;1437;53.250;10.406;2023-04-01T01:21:24;8.10;;;2.93;;
2858;SDS011;1437;53.250;10.406;2023-04-01T01:24:09;6.13;;;2.40;;
2858;SDS011;1437;53.250;10.406;2023-04-01T01:26:50;7.30;;;3.20;;
2858;SDS011;1437;53.250;10.406;2023-04-01T01:32:17;4.87;;;2.20;;
2858;SDS011;1437;53.250;10.406;2023-04-01T01:34:48;4.17;;;2.20;;
2858;SDS011;1437;53.250;10.406;2023-04-01T01:37:23;4.20;;;2.70;;
2858;SDS011;1437;53.250;10.406;2023-04-01T01:39:58;6.27;;;2.83;;
2858;SDS011;1437;53.250;10.406;2023-04-01T01:42:37;3.60;;;2.53;;
2858;SDS011;1437;53.250;10.406;2023-04-01T01:45:08;5.20;;;2.63;;
2858;SDS011;1437;53.250;10.406;2023-04-01T01:47:48;7.00;;;2.47;;
2858;SDS011;1437;53.250;10.406;2023-04-01T01:50:27;7.67;;;2.57;;
2858;SDS011;1437;53.250;10.406;2023-04-01T01:53:02;7.03;;;2.57;;
2858;SDS011;1437;53.250;10.406;2023-04-01T01:58:09;2.63;;;1.83;;
2858;SDS011;1437;53.250;10.406;2023-04-01T02:00:42;3.33;;;2.00;;
2858;SDS011;1437;53.250;10.406;2023-04-01T02:03:10;7.50;;;2.30;;
2858;SDS011;1437;53.250;10.406;2023-04-01T02:05:42;6.17;;;2.47;;
2858;SDS011;1437;53.250;10.406;2023-04-01T02:08:13;8.63;;;2.70;;
2858;SDS011;1437;53.250;10.406;2023-04-01T02:10:43;4.13;;;2.13;;
2858;SDS011;1437;53.250;10.406;2023-04-01T02:13:16;4.70;;;2.50;;
2858;SDS011;1437;53.250;10.406;2023-04-01T02:15:46;8.70;;;3.17;;
2858;SDS011;1437;53.250;10.406;2023-04-01T02:18:14;3.43;;;1.73;;
2858;SDS011;1437;53.250;10.406;2023-04-01T02:20:43;4.97;;;2.60;;
2858;SDS011;1437;53.250;10.406;2023-04-01T02:23:13;7.23;;;2.90;;
2858;SDS011;1437;53.250;10.406;2023-04-01T02:25:41;8.37;;;2.33;;
2858;SDS011;1437;53.250;10.406;2023-04-01T02:28:09;4.00;;;2.10;;
2858;SDS011;1437;53.250;10.406;2023-04-01T02:30:37;6.13;;;2.70;;
2858;SDS011;1437;53.250;10.406;2023-04-01T02:33:06;5.87;;;2.77;;
2858;SDS011;1437;53.250;10.406;2023-04-01T02:36:06;6.20;;;2.00;;
2858;SDS011;1437;53.250;10.406;2023-04-01T02:38:39;4.37;;;2.40;;
2858;SDS011;1437;53.250;10.406;2023-04-01T02:41:07;6.33;;;2.37;;
2858;SDS011;1437;53.250;10.406;2023-04-01T02:43:37;4.00;;;2.77;;
2858;SDS011;1437;53.250;10.406;2023-04-01T02:46:06;5.70;;;3.20;;
2858;SDS011;1437;53.250;10.406;2023-04-01T02:48:33;11.13;;;2.70;;
2858;SDS011;1437;53.250;10.406;2023-04-01T02:51:02;4.60;;;2.70;;
2858;SDS011;1437;53.250;10.406;2023-04-01T02:53:34;4.73;;;2.33;;
2858;SDS011;1437;53.250;10.406;2023-04-01T02:56:04;5.00;;;2.40;;
2858;SDS011;1437;53.250;10.406;2023-04-01T02:58:32;5.73;;;2.70;;
2858;SDS011;1437;53.250;10.406;2023-04-01T03:01:02;5.13;;;2.40;;
2858;SDS011;1437;53.250;10.406;2023-04-01T03:03:30;5.83;;;2.27;;
2858;SDS011;1437;53.250;10.406;2023-04-01T03:05:57;6.93;;;3.20;;
2858;SDS011;1437;53.250;10.406;2023-04-01T03:08:25;4.03;;;2.47;;
2858;SDS011;1437;53.250;10.406;2023-04-01T03:10:53;5.50;;;3.13;;
2858;SDS011;1437;53.250;10.406;2023-04-01T03:13:21;6.20;;;2.77;;
2858;SDS011;1437;53.250;10.406;2023-04-01T03:15:48;5.53;;;2.20;;
2858;SDS011;1437;53.250;10.406;2023-04-01T03:18:16;5.57;;;2.43;;
2858;SDS011;1437;53.250;10.406;2023-04-01T03:20:56;4.77;;;2.03;;
2858;SDS011;1437;53.250;10.406;2023-04-01T03:23:45;10.47;;;3.37;;
2858;SDS011;1437;53.250;10.406;2023-04-01T03:26:17;3.03;;;2.10;;
2858;SDS011;1437;53.250;10.406;2023-04-01T03:28:46;5.60;;;2.47;;
2858;SDS011;1437;53.250;10.406;2023-04-01T03:31:14;7.30;;;2.17;;
2858;SDS011;1437;53.250;10.406;2023-04-01T03:33:45;5.70;;;2.77;;
2858;SDS011;1437;53.250;10.406;2023-04-01T03:36:16;4.43;;;1.93;;
2858;SDS011;1437;53.250;10.406;2023-04-01T03:38:47;4.00;;;2.10;;
2858;SDS011;1437;53.250;10.406;2023-04-01T03:41:19;5.70;;;2.80;;
2858;SDS011;1437;53.250;10.406;2023-04-01T03:43:49;5.33;;;2.20;;
2858;SDS011;1437;53.250;10.406;2023-04-01T03:46:20;8.00;;;2.67;;
2858;SDS011;1437;53.250;10.406;2023-04-01T03:49:05;6.37;;;2.60;;
2858;SDS011;1437;53.250;10.406;2023-04-01T03:51:36;6.60;;;2.70;;
2858;SDS011;1437;53.250;10.406;2023-04-01T03:54:04;9.43;;;3.30;;
2858;SDS011;1437;53.250;10.406;2023-04-01T03:56:37;5.90;;;2.70;;
2858;SDS011;1437;53.250;10.406;2023-04-01T03:59:07;5.60;;;2.63;;
2858;SDS011;1437;53.250;10.406;2023-04-01T04:01:35;7.23;;;2.60;;
2858;SDS011;1437;53.250;10.406;2023-04-01T04:04:03;3.20;;;2.30;;
2858;SDS011;1437;53.250;10.406;2023-04-01T04:06:33;7.03;;;3.00;;
2858;SDS011;1437;53.250;10.406;2023-04-01T04:09:06;6.00;;;2.80;;
2858;SDS011;1437;53.250;10.406;2023-04-01T04:11:38;4.60;;;2.53;;
2858;SDS011;1437;53.250;10.406;2023-04-01T04:14:05;4.93;;;2.50;;
2858;SDS011;1437;53.250;10.406;2023-04-01T04:16:34;4.73;;;2.30;;
2858;SDS011;1437;53.250;10.406;2023-04-01T04:19:02;4.50;;;2.43;;
2858;SDS011;1437;53.250;10.406;2023-04-01T04:21:30;5.53;;;2.67;;
2858;SDS011;1437;53.250;10.406;2023-04-01T04:23:58;4.97;;;2.90;;
2858;SDS011;1437;53.250;10.406;2023-04-01T04:26:26;4.97;;;3.17;;
2858;SDS011;1437;53.250;10.406;2023-04-01T04:28:58;6.27;;;2.73;;
2858;SDS011;1437;53.250;10.406;2023-04-01T04:31:25;6.80;;;3.30;;
2858;SDS011;1437;53.250;10.406;2023-04-01T04:33:53;4.20;;;2.80;;
2858;SDS011;1437;53.250;10.406;2023-04-01T04:36:37;5.97;;;3.27;;
2858;SDS011;1437;53.250;10.406;2023-04-01T04:39:12;6.13;;;2.40;;
2858;SDS011;1437;53.250;10.406;2023-04-01T04:41:42;7.67;;;3.50;;
2858;SDS011;1437;53.250;10.406;2023-04-01T04:44:17;9.33;;;2.90;;
2858;SDS011;1437;53.250;10.406;2023-04-01T04:47:06;4.23;;;2.53;;
2858;SDS011;1437;53.250;10.406;2023-04-01T04:49:37;9.77;;;3.03;;
2858;SDS011;1437;53.250;10.406;2023-04-01T04:52:04;8.70;;;2.93;;
2858;SDS011;1437;53.250;10.406;2023-04-01T04:54:34;4.33;;;2.37;;
2858;SDS011;1437;53.250;10.406;2023-04-01T04:57:05;4.83;;;2.53;;
2858;SDS011;1437;53.250;10.406;2023-04-01T04:59:35;6.60;;;2.70;;
2858;SDS011;1437;53.250;10.406;2023-04-01T05:02:02;4.20;;;2.80;;
2858;SDS011;1437;53.250;10.406;2023-04-01T05:04:33;5.73;;;2.87;;
2858;SDS011;1437;53.250;10.406;2023-04-01T05:07:02;4.20;;;2.83;;
2858;SDS011;1437;53.250;10.406;2023-04-01T05:09:36;5.70;;;3.20;;
2858;SDS011;1437;53.250;10.406;2023-04-01T05:12:04;5.50;;;3.00;;
2858;SDS011;1437;53.250;10.406;2023-04-01T05:14:31;5.95;;;2.75;;
2858;SDS011;1437;53.250;10.406;2023-04-01T05:17:00;6.40;;;3.20;;
2858;SDS011;1437;53.250;10.406;2023-04-01T05:19:28;9.90;;;3.53;;
2858;SDS011;1437;53.250;10.406;2023-04-01T05:21:55;7.27;;;3.47;;
2858;SDS011;1437;53.250;10.406;2023-04-01T05:24:27;7.53;;;3.97;;
2858;SDS011;1437;53.250;10.406;2023-04-01T05:26:57;7.83;;;3.30;;
2858;SDS011;1437;53.250;10.406;2023-04-01T05:29:25;9.20;;;2.80;;
2858;SDS011;1437;53.250;10.406;2023-04-01T05:31:53;14.43;;;4.23;;
2858;SDS011;1437;53.250;10.406;2023-04-01T05:34:22;7.50;;;2.80;;
2858;SDS011;1437;53.250;10.406;2023-04-01T05:36:49;5.00;;;2.90;;
2858;SDS011;1437;53.250;10.406;2023-04-01T05:39:17;5.63;;;2.83;;
2858;SDS011;1437;53.250;10.406;2023-04-01T05:41:44;8.00;;;3.43;;
2858;SDS011;1437;53.250;10.406;2023-04-01T05:44:12;7.43;;;3.17;;
2858;SDS011;1437;53.250;10.406;2023-04-01T05:46:41;7.70;;;3.37;;
2858;SDS011;1437;53.250;10.406;2023-04-01T05:49:08;6.93;;;3.67;;
2858;SDS011;1437;53.250;10.406;2023-04-01T05:51:37;5.97;;;2.83;;
2858;SDS011;1437;53.250;10.406;2023-04-01T05:54:05;5.70;;;2.90;;
2858;SDS011;1437;53.250;10.406;2023-04-01T05:56:36;3.73;;;2.70;;
2858;SDS011;1437;53.250;10.406;2023-04-01T05:59:03;7.30;;;3.30;;
2858;SDS011;1437;53.250;10.406;2023-04-01T06:01:32;7.63;;;3.27;;
2858;SDS011;1437;53.250;10.406;2023-04-01T06:03:59;5.80;;;3.00;;
2858;SDS011;1437;53.250;10.406;2023-04-01T06:06:27;7.73;;;2.97;;
2858;SDS011;1437;53.250;10.406;2023-04-01T06:08:58;6.53;;;3.53;;
2858;SDS011;1437;53.250;10.406;2023-04-01T06:11:28;6.40;;;3.13;;
2858;SDS011;1437;53.250;10.406;2023-04-01T06:14:11;7.00;;;3.10;;
2858;SDS011;1437;53.250;10.406;2023-04-01T06:16:47;5.60;;;3.03;;
2858;SDS011;1437;53.250;10.406;2023-04-01T06:19:27;7.60;;;3.73;;
2858;SDS011;1437;53.250;10.406;2023-04-01T06:24:49;9.30;;;4.00;;
2858;SDS011;1437;53.250;10.406;2023-04-01T06:27:22;6.23;;;3.63;;
2858;SDS011;1437;53.250;10.406;2023-04-01T06:29:58;7.10;;;4.07;;
2858;SDS011;1437;53.250;10.406;2023-04-01T06:32:32;8.57;;;3.73;;
2858;SDS011;1437;53.250;10.406;2023-04-01T06:35:11;8.20;;;4.10;;
2858;SDS011;1437;53.250;10.406;2023-04-01T06:43:19;5.68;;;3.50;;
2858;SDS011;1437;53.250;10.406;2023-04-01T06:45:54;6.50;;;3.50;;
2858;SDS011;1437;53.250;10.406;2023-04-01T06:48:41;4.93;;;3.20;;
2858;SDS011;1437;53.250;10.406;2023-04-01T06:51:17;2.20;;;1.40;;
2858;SDS011;1437;53.250;10.406;2023-04-01T06:53:51;2.00;;;1.00;;
2858;SDS011;1437;53.250;10.406;2023-04-01T06:56:23;1.70;;;1.10;;
2858;SDS011;1437;53.250;10.406;2023-04-01T06:58:59;2.83;;;1.73;;
2858;SDS011;1437;53.250;10.406;2023-04-01T07:01:32;2.40;;;1.33;;
2858;SDS011;1437;53.250;10.406;2023-04-01T07:04:05;1.90;;;1.00;;
2858;SDS011;1437;53.250;10.406;2023-04-01T07:06:35;2.60;;;1.60;;
2858;SDS011;1437;53.250;10.406;2023-04-01T07:09:05;1.93;;;1.20;;
2858;SDS011;1437;53.250;10.406;2023-04-01T07:11:35;2.20;;;1.40;;
2858;SDS011;1437;53.250;10.406;2023-04-01T07:14:06;2.20;;;1.20;;
2858;SDS011;1437;53.250;10.406;2023-04-01T07:16:39;2.90;;;1.60;;
2858;SDS011;1437;53.250;10.406;2023-04-01T07:19:08;2.40;;;1.40;;
2858;SDS011;1437;53.250;10.406;2023-04-01T07:21:42;2.00;;;1.20;;
2858;SDS011;1437;53.250;10.406;2023-04-01T07:24:13;2.90;;;1.83;;
2858;SDS011;1437;53.250;10.406;2023-04-01T07:26:46;2.23;;;1.20;;
2858;SDS011;1437;53.250;10.406;2023-04-01T07:29:15;2.73;;;1.50;;
2858;SDS011;1437;53.250;10.406;2023-04-01T07:31:51;2.17;;;1.53;;
2858;SDS011;1437;53.250;10.406;2023-04-01T07:34:25;3.73;;;1.30;;
2858;SDS011;1437;53.250;10.406;2023-04-01T07:36:53;1.53;;;0.90;;
2858;SDS011;1437;53.250;10.406;2023-04-01T07:39:28;1.97;;;1.00;;
2858;SDS011;1437;53.250;10.406;2023-04-01T07:41:59;2.40;;;1.07;;
2858;SDS011;1437;53.250;10.406;2023-04-01T07:44:31;2.07;;;1.13;;
2858;SDS011;1437;53.250;10.406;2023-04-01T07:47:06;1.70;;;1.00;;
2858;SDS011;1437;53.250;10.406;2023-04-01T07:49:40;2.27;;;1.23;;
2858;SDS011;1437;53.250;10.406;2023-04-01T07:52:11;1.70;;;0.80;;
2858;SDS011;1437;53.250;10.406;2023-04-01T07:54:42;2.10;;;1.13;;
2858;SDS011;1437;53.250;10.406;2023-04-01T07:57:18;1.77;;;0.97;;
2858;SDS011;1437;53.250;10.406;2023-04-01T07:59:51;1.60;;;0.80;;
2858;SDS011;1437;53.250;10.406;2023-04-01T08:02:26;1.60;;;0.80;;
2858;SDS011;1437;53.250;10.406;2023-04-01T08:05:02;3.20;;;0.80;;
2858;SDS011;1437;53.250;10.406;2023-04-01T08:07:33;1.57;;;1.10;;
2858;SDS011;1437;53.250;10.406;2023-04-01T08:10:04;2.17;;;0.80;;
2858;SDS011;1437;53.250;10.406;2023-04-01T08:12:58;1.37;;;0.80;;
2858;SDS011;1437;53.250;10.406;2023-04-01T08:15:33;1.97;;;0.80;;
2858;SDS011;1437;53.250;10.406;2023-04-01T08:18:14;1.50;;;0.80;;
2858;SDS011;1437;53.250;10.406;2023-04-01T08:20:57;3.10;;;1.03;;
2858;SDS011;1437;53.250;10.406;2023-04-01T08:23:26;1.53;;;0.90;;
2858;SDS011;1437;53.250;10.406;2023-04-01T08:26:10;1.40;;;0.70;;
2858;SDS011;1437;53.250;10.406;2023-04-01T08:28:41;1.60;;;0.80;;
2858;SDS011;1437;53.250;10.406;2023-04-01T08:31:25;2.10;;;1.03;;
2858;SDS011;1437;53.250;10.406;2023-04-01T08:37:00;2.47;;;1.00;;
2858;SDS011;1437;53.250;10.406;2023-04-01T08:39:30;1.57;;;0.83;;
2858;SDS011;1437;53.250;10.406;2023-04-01T08:42:18;1.60;;;0.80;;
2858;SDS011;1437;53.250;10.406;2023-04-01T08:53:29;1.57;;;0.70;;
2858;SDS011;1437;53.250;10.406;2023-04-01T08:56:09;3.17;;;1.00;;
2858;SDS011;1437;53.250;10.406;2023-04-01T09:04:37;1.57;;;0.77;;
2858;SDS011;1437;53.250;10.406;2023-04-01T09:07:25;1.70;;;0.90;;
2858;SDS011;1437;53.250;10.406;2023-04-01T09:13:24;2.43;;;1.40;;
2858;SDS011;1437;53.250;10.406;2023-04-01T09:16:20;2.70;;;0.90;;
2858;SDS011;1437;53.250;10.406;2023-04-01T09:18:53;2.80;;;1.37;;
2858;SDS011;1437;53.250;10.406;2023-04-01T09:21:43;2.63;;;0.90;;
2858;SDS011;1437;53.250;10.406;2023-04-01T09:24:29;5.07;;;1.23;;
2858;SDS011;1437;53.250;10.406;2023-04-01T09:27:04;1.53;;;0.70;;
2858;SDS011;1437;53.250;10.406;2023-04-01T09:32:36;2.03;;;1.30;;
2858;SDS011;1437;53.250;10.406;2023-04-01T09:35:22;2.17;;;0.87;;
2858;SDS011;1437;53.250;10.406;2023-04-01T09:37:54;1.70;;;0.90;;
2858;SDS011;1437;53.250;10.406;2023-04-01T09:40:36;5.70;;;3.93;;
2858;SDS011;1437;53.250;10.406;2023-04-01T09:45:54;1.63;;;1.00;;
2858;SDS011;1437;53.250;10.406;2023-04-01T09:51:13;2.13;;;1.20;;
2858;SDS011;1437;53.250;10.406;2023-04-01T09:53:52;2.33;;;1.10;;
2858;SDS011;1437;53.250;10.406;2023-04-01T09:56:44;1.80;;;0.90;;
2858;SDS011;1437;53.250;10.406;2023-04-01T09:59:27;4.03;;;0.93;;
2858;SDS011;1437;53.250;10.406;2023-04-01T10:05:09;4.20;;;1.40;;
2858;SDS011;1437;53.250;10.406;2023-04-01T10:08:08;1.63;;;0.80;;
2858;SDS011;1437;53.250;10.406;2023-04-01T10:13:58;1.80;;;0.90;;
2858;SDS011;1437;53.250;10.406;2023-04-01T10:19:39;1.77;;;0.90;;
2858;SDS011;1437;53.250;10.406;2023-04-01T10:22:24;1.73;;;0.90;;
2858;SDS011;1437;53.250;10.406;2023-04-01T10:25:23;2.30;;;0.90;;
2858;SDS011;1437;53.250;10.406;2023-04-01T10:31:07;2.07;;;1.13;;
2858;SDS011;1437;53.250;10.406;2023-04-01T10:33:47;2.33;;;1.17;;
2858;SDS011;1437;53.250;10.406;2023-04-01T10:41:57;1.77;;;0.80;;
2858;SDS011;1437;53.250;10.406;2023-04-01T10:58:59;1.80;;;1.00;;
2858;SDS011;1437;53.250;10.406;2023-04-01T11:04:51;1.50;;;0.70;;
2858;SDS011;1437;53.250;10.406;2023-04-01T11:07:45;2.07;;;1.00;;
2858;SDS011;1437;53.250;10.406;2023-04-01T11:13:25;2.00;;;1.00;;
2858;SDS011;1437;53.250;10.406;2023-04-01T11:16:11;1.63;;;0.80;;
2858;SDS011;1437;53.250;10.406;2023-04-01T11:24:28;2.10;;;1.30;;
2858;SDS011;1437;53.250;10.406;2023-04-01T11:27:03;2.03;;;0.90;;
2858;SDS011;1437;53.250;10.406;2023-04-01T11:29:51;2.10;;;0.77;;
2858;SDS011;1437;53.250;10.406;2023-04-01T11:32:54;1.63;;;0.90;;
2858;SDS011;1437;53.250;10.406;2023-04-01T11:38:18;2.77;;;0.70;;
2858;SDS011;1437;53.250;10.406;2023-04-01T11:40:48;1.87;;;1.10;;
2858;SDS011;1437;53.250;10.406;2023-04-01T11:43:21;2.40;;;1.10;;
2858;SDS011;1437;53.250;10.406;2023-04-01T11:45:57;2.90;;;1.37;;
2858;SDS011;1437;53.250;10.406;2023-04-01T11:48:44;1.97;;;1.20;;
2858;SDS011;1437;53.250;10.406;2023-04-01T11:54:25;3.70;;;1.97;;
2858;SDS011;1437;53.250;10.406;2023-04-01T11:57:06;2.30;;;1.30;;
2858;SDS011;1437;53.250;10.406;2023-04-01T11:59:46;3.63;;;2.30;;
2858;SDS011;1437;53.250;10.406;2023-04-01T12:02:36;8.67;;;5.80;;
2858;SDS011;1437;53.250;10.406;2023-04-01T12:08:02;3.23;;;1.10;;
2858;SDS011;1437;53.250;10.406;2023-04-01T12:10:37;3.47;;;2.27;;
2858;SDS011;1437;53.250;10.406;2023-04-01T12:13:11;2.57;;;0.93;;
2858;SDS011;1437;53.250;10.406;2023-04-01T12:15:47;3.03;;;1.50;;
2858;SDS011;1437;53.250;10.406;2023-04-01T12:18:23;4.83;;;2.50;;
2858;SDS011;1437;53.250;10.406;2023-04-01T12:21:10;2.10;;;1.00;;
2858;SDS011;1437;53.250;10.406;2023-04-01T12:23:48;1.70;;;1.10;;
2858;SDS011;1437;53.250;10.406;2023-04-01T12:26:38;3.60;;;1.70;;
2858;SDS011;1437;53.250;10.406;2023-04-01T12:29:21;3.23;;;2.23;;
2858;SDS011;1437;53.250;10.406;2023-04-01T12:31:57;2.93;;;1.97;;
2858;SDS011;1437;53.250;10.406;2023-04-01T12:37:45;3.70;;;1.63;;
2858;SDS011;1437;53.250;10.406;2023-04-01T12:40:26;2.50;;;1.37;;
2858;SDS011;1437;53.250;10.406;2023-04-01T12:43:12;1.80;;;0.90;;
2858;SDS011;1437;53.250;10.406;2023-04-01T12:45:54;3.33;;;1.20;;
2858;SDS011;1437;53.250;10.406;2023-04-01T12:48:39;1.90;;;1.20;;
2858;SDS011;1437;53.250;10.406;2023-04-01T13:03:01;3.80;;;1.93;;
2858;SDS011;1437;53.250;10.406;2023-04-01T13:08:22;3.60;;;1.83;;
2858;SDS011;1437;53.250;10.406;2023-04-01T13:11:08;2.43;;;1.77;;
2858;SDS011;1437;53.250;10.406;2023-04-01T13:13:56;2.90;;;1.77;;
2858;SDS011;1437;53.250;10.406;2023-04-01T13:16:31;3.23;;;1.50;;
2858;SDS011;1437;53.250;10.406;2023-04-01T13:19:05;3.30;;;2.27;;
2858;SDS011;1437;53.250;10.406;2023-04-01T13:21:43;2.73;;;1.90;;
2858;SDS011;1437;53.250;10.406;2023-04-01T13:24:46;4.80;;;2.47;;
2858;SDS011;1437;53.250;10.406;2023-04-01T13:30:44;5.33;;;2.17;;
2858;SDS011;1437;53.250;10.406;2023-04-01T13:33:31;4.13;;;2.20;;
2858;SDS011;1437;53.250;10.406;2023-04-01T13:39:17;3.37;;;2.23;;
2858;SDS011;1437;53.250;10.406;2023-04-01T13:41:56;4.40;;;1.83;;
2858;SDS011;1437;53.250;10.406;2023-04-01T13:44:30;3.20;;;1.90;;
2858;SDS011;1437;53.250;10.406;2023-04-01T13:47:13;3.83;;;1.83;;
2858;SDS011;1437;53.250;10.406;2023-04-01T13:55:39;5.07;;;2.60;;
2858;SDS011;1437;53.250;10.406;2023-04-01T13:58:52;3.37;;;2.37;;
2858;SDS011;1437;53.250;10.406;2023-04-01T14:01:28;2.37;;;1.90;;
2858;SDS011;1437;53.250;10.406;2023-04-01T14:06:59;5.20;;;2.20;;
2858;SDS011;1437;53.250;10.406;2023-04-01T14:12:44;4.90;;;2.43;;
2858;SDS011;1437;53.250;10.406;2023-04-01T14:18:25;3.20;;;2.07;;
2858;SDS011;1437;53.250;10.406;2023-04-01T14:21:36;7.90;;;2.23;;
2858;SDS011;1437;53.250;10.406;2023-04-01T14:24:28;6.93;;;2.57;;
2858;SDS011;1437;53.250;10.406;2023-04-01T14:27:07;3.73;;;1.80;;
2858;SDS011;1437;53.250;10.406;2023-04-01T14:29:50;15.43;;;8.03;;
2858;SDS011;1437;53.250;10.406;2023-04-01T14:32:51;4.25;;;2.60;;
2858;SDS011;1437;53.250;10.406;2023-04-01T14:35:24;3.57;;;1.80;;
2858;SDS011;1437;53.250;10.406;2023-04-01T14:38:02;4.30;;;2.40;;
2858;SDS011;1437;53.250;10.406;2023-04-01T14:40:39;3.53;;;1.90;;
2858;SDS011;1437;53.250;10.406;2023-04-01T14:43:21;2.60;;;1.53;;
2858;SDS011;1437;53.250;10.406;2023-04-01T14:46:16;4.27;;;2.30;;
2858;SDS011;1437;53.250;10.406;2023-04-01T14:48:53;4.33;;;1.83;;
2858;SDS011;1437;53.250;10.406;2023-04-01T14:51:23;4.23;;;2.37;;
2858;SDS011;1437;53.250;10.406;2023-04-01T14:54:06;3.63;;;2.27;;
2858;SDS011;1437;53.250;10.406;2023-04-01T14:56:48;3.83;;;2.03;;
2858;SDS011;1437;53.250;10.406;2023-04-01T14:59:26;5.30;;;1.87;;
2858;SDS011;1437;53.250;10.406;2023-04-01T15:02:00;3.20;;;2.20;;
2858;SDS011;1437;53.250;10.406;2023-04-01T15:04:37;5.27;;;1.90;;
2858;SDS011;1437;53.250;10.406;2023-04-01T15:07:11;5.40;;;2.33;;
2858;SDS011;1437;53.250;10.406;2023-04-01T15:09:51;6.57;;;2.80;;
2858;SDS011;1437;53.250;10.406;2023-04-01T15:12:26;4.20;;;2.47;;
2858;SDS011;1437;53.250;10.406;2023-04-01T15:15:18;4.40;;;1.70;;
2858;SDS011;1437;53.250;10.406;2023-04-01T15:17:58;5.27;;;3.00;;
2858;SDS011;1437;53.250;10.406;2023-04-01T15:20:47;5.27;;;2.60;;
2858;SDS011;1437;53.250;10.406;2023-04-01T15:23:24;6.53;;;3.10;;
2858;SDS011;1437;53.250;10.406;2023-04-01T15:26:04;3.90;;;2.30;;
2858;SDS011;1437;53.250;10.406;2023-04-01T15:28:36;6.13;;;3.03;;
2858;SDS011;1437;53.250;10.406;2023-04-01T15:31:09;3.60;;;2.20;;
2858;SDS011;1437;53.250;10.406;2023-04-01T15:36:50;4.00;;;3.13;;
2858;SDS011;1437;53.250;10.406;2023-04-01T15:42:30;5.17;;;2.70;;
2858;SDS011;1437;53.250;10.406;2023-04-01T15:45:26;3.50;;;3.17;;
2858;SDS011;1437;53.250;10.406;2023-04-01T15:48:10;6.50;;;3.00;;
2858;SDS011;1437;53.250;10.406;2023-04-01T15:53:58;3.60;;;2.47;;
2858;SDS011;1437;53.250;10.406;2023-04-01T15:59:24;6.37;;;2.40;;
2858;SDS011;1437;53.250;10.406;2023-04-01T16:01:58;4.30;;;2.73;;
2858;SDS011;1437;53.250;10.406;2023-04-01T16:04:42;5.70;;;2.83;;
2858;SDS011;1437;53.250;10.406;2023-04-01T16:07:37;6.43;;;3.70;;
2858;SDS011;1437;53.250;10.406;2023-04-01T16:10:24;5.23;;;3.17;;
2858;SDS011;1437;53.250;10.406;2023-04-01T16:12:59;15.00;;;6.30;;
2858;SDS011;1437;53.250;10.406;2023-04-01T16:15:29;10.50;;;4.93;;
2858;SDS011;1437;53.250;10.406;2023-04-01T16:20:49;11.83;;;7.73;;
2858;SDS011;1437;53.250;10.406;2023-04-01T16:23:30;5.20;;;3.43;;
2858;SDS011;1437;53.250;10.406;2023-04-01T16:26:18;8.73;;;4.87;;
2858;SDS011;1437;53.250;10.406;2023-04-01T16:28:52;11.70;;;3.80;;
2858;SDS011;1437;53.250;10.406;2023-04-01T16:31:29;8.33;;;3.70;;
2858;SDS011;1437;53.250;10.406;2023-04-01T16:34:02;6.10;;;3.73;;
2858;SDS011;1437;53.250;10.406;2023-04-01T16:36:37;6.53;;;3.90;;
2858;SDS011;1437;53.250;10.406;2023-04-01T16:39:18;6.03;;;3.93;;
2858;SDS011;1437;53.250;10.406;2023-04-01T16:45:41;7.43;;;4.40;;
2858;SDS011;1437;53.250;10.406;2023-04-01T16:51:40;9.57;;;3.70;;
2858;SDS011;1437;53.250;10.406;2023-04-01T16:54:28;8.60;;;4.23;;
2858;SDS011;1437;53.250;10.406;2023-04-01T16:57:02;9.10;;;3.90;;
2858;SDS011;1437;53.250;10.406;2023-04-01T16:59:44;8.30;;;3.57;;
2858;SDS011;1437;53.250;10.406;2023-04-01T17:02:14;11.40;;;7.70;;
2858;SDS011;1437;53.250;10.406;2023-04-01T17:05:09;6.20;;;2.83;;
2858;SDS011;1437;53.250;10.406;2023-04-01T17:07:54;6.13;;;3.50;;
2858;SDS011;1437;53.250;10.406;2023-04-01T17:10:32;4.87;;;3.00;;
2858;SDS011;1437;53.250;10.406;2023-04-01T17:13:08;4.40;;;3.13;;
2858;SDS011;1437;53.250;10.406;2023-04-01T17:15:46;4.50;;;3.20;;
2858;SDS011;1437;53.250;10.406;2023-04-01T17:18:16;6.43;;;3.93;;
2858;SDS011;1437;53.250;10.406;2023-04-01T17:20:54;4.90;;;3.53;;
2858;SDS011;1437;53.250;10.406;2023-04-01T17:23:43;8.60;;;4.17;;
2858;SDS011;1437;53.250;10.406;2023-04-01T17:26:26;5.90;;;3.90;;
2858;SDS011;1437;53.250;10.406;2023-04-01T17:28:59;10.37;;;4.97;;
2858;SDS011;1437;53.250;10.406;2023-04-01T17:31:36;6.20;;;4.00;;
2858;SDS011;1437;53.250;10.406;2023-04-01T17:34:41;6.50;;;4.13;;
2858;SDS011;1437;53.250;10.406;2023-04-01T17:37:19;10.37;;;3.27;;
2858;SDS011;1437;53.250;10.406;2023-04-01T17:40:05;4.63;;;3.70;;
2858;SDS011;1437;53.250;10.406;2023-04-01T17:42:39;9.27;;;3.27;;
2858;SDS011;1437;53.250;10.406;2023-04-01T17:45:10;6.33;;;3.90;;
2858;SDS011;1437;53.250;10.406;2023-04-01T17:47:43;5.70;;;3.80;;
2858;SDS011;1437;53.250;10.406;2023-04-01T17:50:24;7.60;;;4.10;;
2858;SDS011;1437;53.250;10.406;2023-04-01T17:52:59;8.30;;;4.07;;
2858;SDS011;1437;53.250;10.406;2023-04-01T17:58:27;7.33;;;4.43;;
2858;SDS011;1437;53.250;10.406;2023-04-01T18:01:11;12.30;;;4.60;;
2858;SDS011;1437;53.250;10.406;2023-04-01T18:03:56;5.80;;;4.00;;
2858;SDS011;1437;53.250;10.406;2023-04-01T18:06:31;5.47;;;3.90;;
2858;SDS011;1437;53.250;10.406;2023-04-01T18:09:09;9.73;;;4.20;;
2858;SDS011;1437;53.250;10.406;2023-04-01T18:11:47;14.00;;;8.77;;
2858;SDS011;1437;53.250;10.406;2023-04-01T18:17:33;6.57;;;4.03;;
2858;SDS011;1437;53.250;10.406;2023-04-01T18:20:17;13.37;;;5.30;;
2858;SDS011;1437;53.250;10.406;2023-04-01T18:22:52;8.97;;;5.30;;
2858;SDS011;1437;53.250;10.406;2023-04-01T18:25:21;8.53;;;5.17;;
2858;SDS011;1437;53.250;10.406;2023-04-01T18:27:54;5.23;;;4.60;;
2858;SDS011;1437;53.250;10.406;2023-04-01T18:30:35;8.43;;;5.00;;
2858;SDS011;1437;53.250;10.406;2023-04-01T18:33:25;7.93;;;5.50;;
2858;SDS011;1437;53.250;10.406;2023-04-01T18:36:13;14.03;;;5.10;;